Aérodrome :
LOGIN :

S'inscrire | Disclaimer

   EN    FR    IT 

 










Légende :    VFR   VFR Marginal   IFR   IFR Intensif   IFR Très Intensif
Visi : 
Plafond : 
>= 8 km
>= 3000ft
5 à 8 km
1000 à 3000 ft
1500m à 5 km
500 à 1000 ft
800 à 1500m
200 à 500 ft
< 800m
< 200 ft
Symboles :   Orages  Brouillard  Fortes neiges  Fortes précipitations  Vent > 20 kt
SIGMETs :   Divers  Orages  Givrage  Turbulence  Onde Orograph.  Cendres Volcan.






- Altitude de l'aérodrome : 1178 ft
- Code IATA : EVG


ESND - Sveg

DERNIER METAR :
  • 061050Z AUTO 27008KT 9999 BKN057/// BKN080/// 02/00 Q0982

METARs EXPIRÉS :
  • 061020Z AUTO 29005KT 9999 SCT066/// BKN082/// 02/00 Q0982
  • 060950Z AUTO 29003KT 240V320 9999 FEW068/// 02/01 Q0981
  • 060920Z AUTO 24004KT 220V280 9999 NCD 03/00 Q0981 R27/2///95
  • 060850Z 24008KT CAVOK 03/01 Q0980
  • 060820Z AUTO 25006KT 9999 FEW018/// SCT061/// OVC084/// 03/01 Q0980

TAF N/A



MET'MAP, la Météo Aéronautique d'un coup d'oeil ! - Copyright ORBIFLY Décembre 2007 - Disclaimer

ORBIFLY MET'MAP TEAM :

Programmation & Développement : Alexandra Zaïnal
Sur une idée originale de : Baudouin d'Aumeries
Assistance à la programmation : Marc-Olivier Méhu
Soutien technique & logistique : Manuel Goepfert

Contact : metmap@orbifly.com




SOURCES & CREDITS :

   NOAA